createdAt,value
2018-06-13T00:00:22.779Z,10.17
2018-06-13T00:02:50.972Z,10.80
2018-06-13T00:05:19.233Z,9.40
2018-06-13T00:07:47.383Z,10.80
2018-06-13T00:10:15.559Z,10.63
2018-06-13T00:12:43.689Z,10.73
2018-06-13T00:15:11.932Z,10.37
2018-06-13T00:17:41.157Z,12.33
2018-06-13T00:20:09.403Z,10.30
2018-06-13T00:22:38.494Z,10.67
2018-06-13T00:25:07.031Z,9.80
2018-06-13T00:27:35.497Z,10.03
2018-06-13T00:30:04.009Z,10.47
2018-06-13T00:32:32.210Z,11.30
2018-06-13T00:35:01.588Z,10.33
2018-06-13T00:37:29.738Z,10.73
2018-06-13T00:39:58.060Z,10.00
2018-06-13T00:42:26.214Z,12.40
2018-06-13T00:44:54.745Z,11.00
2018-06-13T00:47:23.139Z,12.30
2018-06-13T00:49:51.269Z,11.03
2018-06-13T00:52:19.568Z,10.47
2018-06-13T00:54:47.850Z,10.07
2018-06-13T00:57:16.076Z,9.88
2018-06-13T00:59:44.219Z,9.87
2018-06-13T01:02:12.379Z,9.58
2018-06-13T01:04:40.518Z,10.93
2018-06-13T01:07:08.879Z,10.40
2018-06-13T01:09:37.070Z,10.60
2018-06-13T01:12:05.813Z,11.03
2018-06-13T01:14:34.048Z,10.10
2018-06-13T01:17:02.312Z,10.07
2018-06-13T01:19:30.724Z,10.93
2018-06-13T01:21:58.848Z,11.57
2018-06-13T01:24:27.303Z,10.07
2018-06-13T01:26:55.571Z,10.03
2018-06-13T01:29:24.123Z,11.63
2018-06-13T01:31:52.992Z,10.20
2018-06-13T01:34:21.350Z,10.13
2018-06-13T01:36:49.620Z,10.30
2018-06-13T01:39:17.764Z,11.43
2018-06-13T01:41:46.195Z,11.33
2018-06-13T01:44:14.398Z,10.70
2018-06-13T01:46:42.515Z,10.33
2018-06-13T01:49:10.773Z,8.97
2018-06-13T01:51:38.999Z,11.27
2018-06-13T01:54:07.600Z,11.70
2018-06-13T01:56:36.203Z,10.83
2018-06-13T01:59:04.344Z,11.60
2018-06-13T02:01:32.643Z,11.20
2018-06-13T02:04:01.182Z,12.07
2018-06-13T02:06:29.363Z,10.93
2018-06-13T02:08:57.689Z,11.30
2018-06-13T02:11:25.873Z,10.50
2018-06-13T02:13:54.016Z,10.65
2018-06-13T02:16:22.340Z,11.00
2018-06-13T02:18:50.956Z,10.75
2018-06-13T02:21:19.444Z,12.27
2018-06-13T02:23:47.910Z,11.17
2018-06-13T02:26:16.027Z,10.10
2018-06-13T02:28:44.329Z,10.50
2018-06-13T02:31:12.679Z,11.90
2018-06-13T02:33:41.087Z,10.40
2018-06-13T02:36:09.468Z,10.77
2018-06-13T02:38:37.540Z,9.60
2018-06-13T02:41:06.737Z,9.30
2018-06-13T02:43:34.900Z,10.43
2018-06-13T02:46:03.157Z,10.00
2018-06-13T02:48:31.433Z,10.47
2018-06-13T02:50:59.568Z,10.07
2018-06-13T02:53:27.691Z,9.67
2018-06-13T02:55:56.677Z,8.98
2018-06-13T02:58:25.639Z,9.53
2018-06-13T03:00:53.831Z,9.67
2018-06-13T03:03:22.614Z,9.93
2018-06-13T03:05:50.732Z,10.00
2018-06-13T03:08:18.884Z,9.77
2018-06-13T03:10:47.265Z,9.30
2018-06-13T03:13:15.425Z,9.35
2018-06-13T03:15:43.571Z,10.30
2018-06-13T03:18:11.807Z,10.20
2018-06-13T03:20:40.194Z,10.00
2018-06-13T03:23:09.081Z,10.15
2018-06-13T03:25:37.759Z,10.27
2018-06-13T03:28:06.368Z,10.03
2018-06-13T03:30:34.488Z,9.33
2018-06-13T03:33:02.668Z,9.00
2018-06-13T03:35:30.805Z,8.80
2018-06-13T03:37:58.956Z,9.50
2018-06-13T03:40:27.122Z,9.83
2018-06-13T03:42:55.350Z,8.43
2018-06-13T03:45:23.681Z,7.50
2018-06-13T03:47:51.961Z,8.33
2018-06-13T03:50:20.143Z,8.10
2018-06-13T03:52:48.347Z,8.13
2018-06-13T03:55:16.712Z,7.37
2018-06-13T03:57:44.888Z,6.97
2018-06-13T04:00:13.100Z,8.33
2018-06-13T04:02:41.337Z,7.10
2018-06-13T04:05:09.497Z,7.83
2018-06-13T04:07:37.762Z,8.20
2018-06-13T04:10:05.906Z,7.90
2018-06-13T04:12:34.061Z,7.37
2018-06-13T04:17:52.542Z,6.97
2018-06-13T04:20:21.770Z,7.13
2018-06-13T04:22:49.925Z,6.95
2018-06-13T04:25:18.182Z,6.57
2018-06-13T04:27:46.319Z,8.00
2018-06-13T04:30:14.404Z,7.20
2018-06-13T04:32:42.543Z,7.60
2018-06-13T04:35:11.893Z,7.07
2018-06-13T04:37:40.087Z,7.93
2018-06-13T04:40:09.297Z,7.17
2018-06-13T04:42:37.498Z,7.17
2018-06-13T04:45:05.758Z,8.03
2018-06-13T04:47:34.113Z,10.10
2018-06-13T04:50:02.338Z,10.00
2018-06-13T04:52:30.622Z,8.07
2018-06-13T04:54:58.844Z,9.00
2018-06-13T04:57:26.967Z,7.50
2018-06-13T04:59:55.134Z,7.57
2018-06-13T05:02:23.415Z,7.78
2018-06-13T05:04:51.578Z,7.55
2018-06-13T05:07:21.337Z,7.27
2018-06-13T05:09:49.491Z,6.50
2018-06-13T05:12:22.671Z,6.03
2018-06-13T05:14:51.835Z,6.50
2018-06-13T05:17:20.127Z,6.50
2018-06-13T05:19:48.268Z,6.03
2018-06-13T05:22:16.375Z,6.33
2018-06-13T05:24:44.837Z,6.95
2018-06-13T05:27:12.934Z,7.50
2018-06-13T05:29:41.058Z,5.93
2018-06-13T05:32:09.565Z,7.40
2018-06-13T05:34:37.705Z,7.70
2018-06-13T05:37:06.224Z,8.63
2018-06-13T05:39:34.411Z,9.00
2018-06-13T05:42:02.573Z,11.03
2018-06-13T05:44:30.820Z,11.87
2018-06-13T05:46:58.942Z,11.20
2018-06-13T05:49:27.149Z,11.05
2018-06-13T05:51:55.984Z,11.18
2018-06-13T05:54:24.124Z,9.97
2018-06-13T05:56:52.295Z,9.90
2018-06-13T05:59:21.004Z,9.00
2018-06-13T06:01:49.128Z,9.73
2018-06-13T06:04:17.248Z,8.48
2018-06-13T06:06:45.871Z,8.27
2018-06-13T06:09:13.943Z,7.55
2018-06-13T06:11:42.057Z,8.40
2018-06-13T06:14:10.609Z,7.97
2018-06-13T06:16:38.735Z,8.05
2018-06-13T06:19:06.828Z,7.90
2018-06-13T06:21:34.920Z,6.57
2018-06-13T06:24:03.409Z,7.10
2018-06-13T06:26:31.483Z,8.00
2018-06-13T06:28:59.543Z,6.97
2018-06-13T06:31:27.826Z,6.15
2018-06-13T06:33:55.976Z,6.30
2018-06-13T06:36:24.098Z,5.90
2018-06-13T06:38:52.481Z,6.10
2018-06-13T06:41:20.635Z,7.12
2018-06-13T06:43:48.906Z,6.57
2018-06-13T06:46:17.105Z,6.90
2018-06-13T06:48:45.277Z,7.20
2018-06-13T06:51:13.453Z,8.70
2018-06-13T06:53:41.594Z,7.33
2018-06-13T06:56:10.120Z,6.90
2018-06-13T06:58:38.349Z,5.80
2018-06-13T07:01:06.542Z,7.23
2018-06-13T07:03:34.643Z,6.30
2018-06-13T07:06:02.791Z,6.60
2018-06-13T07:08:30.917Z,5.80
2018-06-13T07:10:59.042Z,5.40
2018-06-13T07:13:27.230Z,5.58
2018-06-13T07:15:55.502Z,4.87
2018-06-13T07:18:23.688Z,5.33
2018-06-13T07:20:52.062Z,6.90
2018-06-13T07:23:20.180Z,5.20
2018-06-13T07:25:48.299Z,4.57
2018-06-13T07:28:16.439Z,5.50
2018-06-13T07:30:44.756Z,4.00
2018-06-13T07:33:12.922Z,4.80
2018-06-13T07:35:41.092Z,4.77
2018-06-13T07:38:10.504Z,5.00
2018-06-13T07:40:39.259Z,5.13
2018-06-13T07:43:08.001Z,4.17
2018-06-13T07:45:36.166Z,3.90
2018-06-13T07:48:04.310Z,4.30
2018-06-13T07:50:32.487Z,5.60
2018-06-13T07:53:00.744Z,5.73
2018-06-13T07:55:28.876Z,4.67
2018-06-13T07:57:56.978Z,4.70
2018-06-13T08:00:25.335Z,4.92
2018-06-13T08:02:53.559Z,7.42
2018-06-13T08:05:21.730Z,4.90
2018-06-13T08:07:50.106Z,4.80
2018-06-13T08:10:18.806Z,6.80
2018-06-13T08:12:47.109Z,6.03
2018-06-13T08:15:15.341Z,3.93
2018-06-13T08:17:43.497Z,4.67
2018-06-13T08:20:11.816Z,3.80
2018-06-13T08:22:40.711Z,5.40
2018-06-13T08:25:08.867Z,4.03
2018-06-13T08:27:47.055Z,4.03
2018-06-13T08:30:15.689Z,4.43
2018-06-13T08:32:43.850Z,3.47
2018-06-13T08:35:12.091Z,4.20
2018-06-13T08:37:40.661Z,3.37
2018-06-13T08:40:08.731Z,3.67
2018-06-13T08:42:36.960Z,5.87
2018-06-13T08:45:05.612Z,3.53
2018-06-13T08:47:33.695Z,3.70
2018-06-13T08:50:02.120Z,4.67
2018-06-13T08:52:30.491Z,4.13
2018-06-13T08:54:58.779Z,6.73
2018-06-13T08:57:27.381Z,3.60
2018-06-13T08:59:55.934Z,3.37
2018-06-13T09:02:24.319Z,3.27
2018-06-13T09:04:52.983Z,2.90
2018-06-13T09:07:21.244Z,3.30
2018-06-13T09:09:49.315Z,3.17
2018-06-13T09:12:18.631Z,3.17
2018-06-13T09:14:46.795Z,3.60
2018-06-13T09:17:17.232Z,3.87
2018-06-13T09:19:45.277Z,3.43
2018-06-13T09:22:13.598Z,2.63
2018-06-13T09:24:42.099Z,4.00
2018-06-13T09:27:10.875Z,3.00
2018-06-13T09:29:38.978Z,3.03
2018-06-13T09:32:07.943Z,2.70
2018-06-13T09:34:36.025Z,3.67
2018-06-13T09:37:04.187Z,4.20
2018-06-13T09:39:32.802Z,2.63
2018-06-13T09:42:02.074Z,2.83
2018-06-13T09:44:30.848Z,3.57
2018-06-13T09:47:06.906Z,4.42
2018-06-13T09:49:31.024Z,3.40
2018-06-13T09:51:59.177Z,4.62
2018-06-13T09:54:27.400Z,3.70
2018-06-13T09:56:55.520Z,5.27
2018-06-13T09:59:23.642Z,4.40
2018-06-13T10:01:57.110Z,5.22
2018-06-13T10:04:25.351Z,4.90
2018-06-13T10:06:54.175Z,4.35
2018-06-13T10:09:22.320Z,5.67
2018-06-13T10:11:50.504Z,4.65
2018-06-13T10:14:18.682Z,5.20
2018-06-13T10:16:46.920Z,5.13
2018-06-13T10:19:15.019Z,6.17
2018-06-13T10:21:43.135Z,3.70
2018-06-13T10:24:11.437Z,4.43
2018-06-13T10:26:39.610Z,4.90
2018-06-13T10:29:07.783Z,4.20
2018-06-13T10:31:36.069Z,4.43
2018-06-13T10:34:04.220Z,5.43
2018-06-13T10:36:32.947Z,3.70
2018-06-13T10:39:01.143Z,5.60
2018-06-13T10:41:29.372Z,3.62
2018-06-13T10:43:58.456Z,3.70
2018-06-13T10:46:26.591Z,4.25
2018-06-13T10:48:54.696Z,3.37
2018-06-13T10:51:22.896Z,5.17
2018-06-13T10:53:51.054Z,10.70
2018-06-13T10:56:19.701Z,4.90
2018-06-13T10:58:47.839Z,2.80
2018-06-13T11:01:15.943Z,2.72
2018-06-13T11:03:44.107Z,3.20
2018-06-13T11:06:12.672Z,4.00
2018-06-13T11:08:41.555Z,4.00
2018-06-13T11:11:10.648Z,3.57
2018-06-13T11:13:38.900Z,3.70
2018-06-13T11:16:07.236Z,6.30
2018-06-13T11:18:35.329Z,4.27
2018-06-13T11:21:03.800Z,6.80
2018-06-13T11:23:31.881Z,4.77
2018-06-13T11:25:59.976Z,2.93
2018-06-13T11:28:29.130Z,3.67
2018-06-13T11:30:57.239Z,3.35
2018-06-13T11:33:25.411Z,4.20
2018-06-13T11:35:53.579Z,5.35
2018-06-13T11:38:21.903Z,5.50
2018-06-13T11:40:50.040Z,3.50
2018-06-13T11:43:18.398Z,3.40
2018-06-13T11:45:47.597Z,8.13
2018-06-13T11:48:15.992Z,4.07
2018-06-13T11:50:44.317Z,3.03
2018-06-13T11:53:12.489Z,2.83
2018-06-13T11:55:41.837Z,3.80
2018-06-13T11:58:09.995Z,3.87
2018-06-13T12:00:38.103Z,5.23
2018-06-13T12:03:07.612Z,3.37
2018-06-13T12:05:36.416Z,5.63
2018-06-13T12:08:04.812Z,2.83
2018-06-13T12:10:33.024Z,2.80
2018-06-13T12:13:01.285Z,7.03
2018-06-13T12:15:29.880Z,3.92
2018-06-13T12:17:57.996Z,3.90
2018-06-13T12:20:26.144Z,3.33
2018-06-13T12:22:54.637Z,3.87
2018-06-13T12:25:23.182Z,3.57
2018-06-13T12:27:52.030Z,3.98
2018-06-13T12:30:20.170Z,4.25
2018-06-13T12:32:49.324Z,4.00
2018-06-13T12:35:17.444Z,3.83
2018-06-13T12:37:45.567Z,4.20
2018-06-13T12:40:13.823Z,3.10
2018-06-13T12:42:41.906Z,3.53
2018-06-13T12:45:10.653Z,3.10
2018-06-13T12:47:38.841Z,3.42
2018-06-13T12:50:07.091Z,3.07
2018-06-13T12:52:35.427Z,3.00
2018-06-13T12:55:07.568Z,3.10
2018-06-13T12:57:35.704Z,4.13
2018-06-13T13:00:04.235Z,3.73
2018-06-13T13:02:32.584Z,3.30
2018-06-13T13:05:01.404Z,4.63
2018-06-13T13:07:29.661Z,2.80
2018-06-13T13:09:57.762Z,3.30
2018-06-13T13:12:25.911Z,3.33
2018-06-13T13:14:54.231Z,3.87
2018-06-13T13:17:22.323Z,2.95
2018-06-13T13:19:50.633Z,3.60
2018-06-13T13:22:18.822Z,3.72
2018-06-13T13:24:47.024Z,3.15
2018-06-13T13:27:15.466Z,3.70
2018-06-13T13:29:43.795Z,5.03
2018-06-13T13:32:12.248Z,3.65
2018-06-13T13:34:40.457Z,4.73
2018-06-13T13:37:08.918Z,3.70
2018-06-13T13:39:37.049Z,7.00
2018-06-13T13:42:05.198Z,5.40
2018-06-13T13:44:33.750Z,3.20
2018-06-13T13:47:01.936Z,4.13
2018-06-13T13:49:30.097Z,2.83
2018-06-13T13:51:58.196Z,4.20
2018-06-13T13:54:26.395Z,5.00
2018-06-13T13:56:54.633Z,2.83
2018-06-13T13:59:22.802Z,3.13
2018-06-13T14:01:52.375Z,2.42
2018-06-13T14:04:20.715Z,2.65
2018-06-13T14:06:48.849Z,3.90
2018-06-13T14:09:17.511Z,3.05
2018-06-13T14:11:45.667Z,3.67
2018-06-13T14:14:13.951Z,2.57
2018-06-13T14:16:43.927Z,2.65
2018-06-13T14:19:12.220Z,2.77
2018-06-13T14:21:41.531Z,3.53
2018-06-13T14:24:09.799Z,3.13
2018-06-13T14:26:37.972Z,3.00
2018-06-13T14:29:06.111Z,2.77
2018-06-13T14:31:34.458Z,3.40
2018-06-13T14:34:02.628Z,2.80
2018-06-13T14:36:31.219Z,3.20
2018-06-13T14:38:59.344Z,3.03
2018-06-13T14:41:27.471Z,3.77
2018-06-13T14:43:56.088Z,7.00
2018-06-13T14:46:24.307Z,5.97
2018-06-13T14:48:52.469Z,4.53
2018-06-13T14:51:20.550Z,3.40
2018-06-13T14:53:48.673Z,6.80
2018-06-13T14:56:22.063Z,2.80
2018-06-13T14:58:50.422Z,3.10
2018-06-13T15:01:18.551Z,3.63
2018-06-13T15:03:46.643Z,3.20
2018-06-13T15:06:14.806Z,3.60
2018-06-13T15:08:42.978Z,4.40
2018-06-13T15:11:11.267Z,3.17
2018-06-13T15:13:39.768Z,3.53
2018-06-13T15:16:08.120Z,3.47
2018-06-13T15:18:36.234Z,3.73
2018-06-13T15:21:04.413Z,3.50
2018-06-13T15:23:32.560Z,3.50
2018-06-13T15:26:01.022Z,3.98
2018-06-13T15:28:29.816Z,3.83
2018-06-13T15:30:57.979Z,3.77
2018-06-13T15:33:26.321Z,3.72
2018-06-13T15:35:55.809Z,4.28
2018-06-13T15:38:24.302Z,11.13
2018-06-13T15:40:52.982Z,3.90
2018-06-13T15:43:21.637Z,4.47
2018-06-13T15:45:50.001Z,4.60
2018-06-13T15:48:18.254Z,5.03
2018-06-13T15:50:46.385Z,4.83
2018-06-13T15:53:14.606Z,5.50
2018-06-13T15:55:43.905Z,4.55
2018-06-13T15:58:12.886Z,6.28
2018-06-13T16:00:41.534Z,6.20
2018-06-13T16:03:09.864Z,5.33
2018-06-13T16:05:38.019Z,4.20
2018-06-13T16:08:06.272Z,5.33
2018-06-13T16:10:34.452Z,5.00
2018-06-13T16:13:02.606Z,4.67
2018-06-13T16:15:30.805Z,5.20
2018-06-13T16:17:58.951Z,5.40
2018-06-13T16:20:27.100Z,4.55
2018-06-13T16:22:55.402Z,4.40
2018-06-13T16:25:23.626Z,5.53
2018-06-13T16:27:51.955Z,5.23
2018-06-13T16:30:21.621Z,5.30
2018-06-13T16:32:50.597Z,4.85
2018-06-13T16:35:18.775Z,4.57
2018-06-13T16:37:46.951Z,4.67
2018-06-13T16:40:15.187Z,5.00
2018-06-13T16:42:43.358Z,4.53
2018-06-13T16:45:11.888Z,4.17
2018-06-13T16:47:40.512Z,5.20
2018-06-13T16:50:20.104Z,5.30
2018-06-13T16:53:05.200Z,4.30
2018-06-13T16:55:37.326Z,4.60
2018-06-13T16:58:05.502Z,4.40
2018-06-13T17:00:33.798Z,4.20
2018-06-13T17:03:02.060Z,4.60
2018-06-13T17:05:31.155Z,4.93
2018-06-13T17:07:59.296Z,4.90
2018-06-13T17:10:27.501Z,4.35
2018-06-13T17:12:55.659Z,4.72
2018-06-13T17:15:23.916Z,4.67
2018-06-13T17:17:52.067Z,4.63
2018-06-13T17:20:20.300Z,4.15
2018-06-13T17:22:48.524Z,3.83
2018-06-13T17:25:17.775Z,5.20
2018-06-13T17:27:46.204Z,4.53
2018-06-13T17:30:14.442Z,4.60
2018-06-13T17:32:43.727Z,4.37
2018-06-13T17:35:12.030Z,4.40
2018-06-13T17:37:40.157Z,4.53
2018-06-13T17:40:08.392Z,4.90
2018-06-13T17:42:37.885Z,5.43
2018-06-13T17:45:06.599Z,3.67
2018-06-13T17:47:34.733Z,6.23
2018-06-13T17:50:03.030Z,4.50
2018-06-13T17:52:31.184Z,3.87
2018-06-13T17:54:59.359Z,4.57
2018-06-13T17:57:27.895Z,5.03
2018-06-13T17:59:56.048Z,4.62
2018-06-13T18:02:24.195Z,6.90
2018-06-13T18:04:52.332Z,3.43
2018-06-13T18:07:20.487Z,3.50
2018-06-13T18:09:48.948Z,3.73
2018-06-13T18:12:17.330Z,5.40
2018-06-13T18:14:45.430Z,4.03
2018-06-13T18:17:13.632Z,3.40
2018-06-13T18:19:41.864Z,8.93
2018-06-13T18:22:10.080Z,3.10
2018-06-13T18:24:38.275Z,5.20
2018-06-13T18:27:06.553Z,6.47
2018-06-13T18:29:35.160Z,3.77
2018-06-13T18:32:03.595Z,3.10
2018-06-13T18:34:31.729Z,6.83
2018-06-13T18:37:00.263Z,4.63
2018-06-13T18:39:28.370Z,3.80
2018-06-13T18:42:17.357Z,4.05
2018-06-13T18:44:45.764Z,3.93
2018-06-13T18:47:14.230Z,4.50
2018-06-13T18:49:42.402Z,4.70
2018-06-13T18:52:10.600Z,4.83
2018-06-13T18:54:38.715Z,4.87
2018-06-13T18:57:06.819Z,3.67
2018-06-13T18:59:35.099Z,5.47
2018-06-13T19:02:03.474Z,4.60
2018-06-13T19:04:31.708Z,5.53
2018-06-13T19:06:59.775Z,6.93
2018-06-13T19:09:27.843Z,4.23
2018-06-13T19:11:55.963Z,5.42
2018-06-13T19:14:24.124Z,4.63
2018-06-13T19:16:52.450Z,3.90
2018-06-13T19:19:20.760Z,4.55
2018-06-13T19:21:49.033Z,4.37
2018-06-13T19:24:17.643Z,4.20
2018-06-13T19:26:46.462Z,5.27
2018-06-13T19:29:15.805Z,4.77
2018-06-13T19:31:43.899Z,5.90
2018-06-13T19:34:12.469Z,4.53
2018-06-13T19:36:40.885Z,4.83
2018-06-13T19:39:09.978Z,5.07
2018-06-13T19:41:38.157Z,4.60
2018-06-13T19:44:06.241Z,4.00
2018-06-13T19:46:34.355Z,5.30
2018-06-13T19:49:02.580Z,5.70
2018-06-13T19:51:30.771Z,5.30
2018-06-13T19:54:04.208Z,4.93
2018-06-13T19:56:33.213Z,4.57
2018-06-13T19:59:01.508Z,4.77
2018-06-13T20:01:30.146Z,5.42
2018-06-13T20:04:03.676Z,5.10
2018-06-13T20:06:31.683Z,5.00
2018-06-13T20:08:59.784Z,5.42
2018-06-13T20:11:27.889Z,5.67
2018-06-13T20:14:01.618Z,5.80
2018-06-13T20:16:46.539Z,5.58
2018-06-13T20:19:20.092Z,5.77
2018-06-13T20:21:48.173Z,5.33
2018-06-13T20:24:16.273Z,6.00
2018-06-13T20:26:50.322Z,5.87
2018-06-13T20:29:23.940Z,6.03
2018-06-13T20:31:52.053Z,5.70
2018-06-13T20:34:20.179Z,6.17
2018-06-13T20:36:48.286Z,5.30
2018-06-13T20:39:16.455Z,4.57
2018-06-13T20:41:44.675Z,5.40
2018-06-13T20:44:14.100Z,5.70
2018-06-13T20:46:42.732Z,5.93
2018-06-13T20:49:10.811Z,5.13
2018-06-13T20:51:38.899Z,5.67
2018-06-13T20:54:07.000Z,6.05
2018-06-13T20:56:35.128Z,6.05
2018-06-13T20:59:03.363Z,6.13
2018-06-13T21:01:31.560Z,6.43
2018-06-13T21:03:59.647Z,5.53
2018-06-13T21:06:28.760Z,6.65
2018-06-13T21:08:57.083Z,6.80
2018-06-13T21:11:26.328Z,6.78
2018-06-13T21:13:55.311Z,7.57
2018-06-13T21:16:23.587Z,6.47
2018-06-13T21:18:51.891Z,5.80
2018-06-13T21:21:20.507Z,6.67
2018-06-13T21:23:49.327Z,6.03
2018-06-13T21:26:17.428Z,6.60
2018-06-13T21:28:45.583Z,6.70
2018-06-13T21:31:14.840Z,6.45
2018-06-13T21:33:43.597Z,6.10
2018-06-13T21:36:13.432Z,6.80
2018-06-13T21:38:41.900Z,5.50
2018-06-13T21:41:10.276Z,6.80
2018-06-13T21:43:38.589Z,6.50
2018-06-13T21:46:08.181Z,6.80
2018-06-13T21:48:36.284Z,7.57
2018-06-13T21:51:04.355Z,7.20
2018-06-13T21:53:32.721Z,12.85
2018-06-13T21:56:00.911Z,7.57
2018-06-13T21:58:29.104Z,8.13
2018-06-13T22:00:57.560Z,8.17
2018-06-13T22:03:25.701Z,7.95
2018-06-13T22:05:54.496Z,5.93
2018-06-13T22:08:22.767Z,6.00
2018-06-13T22:10:51.334Z,5.80
2018-06-13T22:13:19.603Z,6.08
2018-06-13T22:15:47.696Z,6.40
2018-06-13T22:18:15.825Z,5.27
2018-06-13T22:20:44.565Z,5.63
2018-06-13T22:23:13.309Z,6.03
2018-06-13T22:25:41.499Z,6.20
2018-06-13T22:28:09.640Z,5.30
2018-06-13T22:30:38.148Z,5.97
2018-06-13T22:33:06.448Z,6.53
2018-06-13T22:35:34.641Z,6.90
2018-06-13T22:38:02.747Z,6.12
2018-06-13T22:40:32.000Z,6.90
2018-06-13T22:43:00.247Z,6.03
2018-06-13T22:45:28.572Z,6.37
2018-06-13T22:47:56.988Z,6.40
2018-06-13T22:50:25.203Z,5.92
2018-06-13T22:52:53.454Z,6.25
2018-06-13T22:55:21.643Z,9.93
2018-06-13T22:57:49.951Z,7.03
2018-06-13T23:00:38.925Z,6.53
2018-06-13T23:03:07.031Z,9.13
2018-06-13T23:05:37.497Z,9.83
2018-06-13T23:08:05.992Z,8.07
2018-06-13T23:10:34.164Z,8.50
2018-06-13T23:13:02.288Z,7.20
2018-06-13T23:15:30.457Z,6.95
2018-06-13T23:18:05.492Z,7.13
2018-06-13T23:20:33.631Z,7.33
2018-06-13T23:23:01.739Z,6.93
2018-06-13T23:25:29.814Z,8.93
2018-06-13T23:27:58.230Z,6.90
2018-06-13T23:30:26.510Z,7.33
2018-06-13T23:32:54.930Z,7.17
2018-06-13T23:35:23.127Z,7.73
2018-06-13T23:37:51.437Z,7.70
2018-06-13T23:40:19.622Z,6.80
2018-06-13T23:42:47.652Z,7.97
2018-06-13T23:45:15.807Z,8.00
2018-06-13T23:47:43.981Z,7.77
2018-06-13T23:50:12.228Z,8.43
2018-06-13T23:52:40.538Z,9.77
2018-06-13T23:55:08.667Z,9.60
2018-06-13T23:57:36.847Z,8.00
